메인 페이지
METAR-TAF:

METAR-TAF

공항 :

Four Corners Regional Airport

Farmington, 뉴멕시코, 미국

위도: 36-44-37N, 경도: 108-13-45W, 고도: 1677m

현재 날씨관측

예보는 26분 전, 16:53시(UTC)에 발표되었습니다.
동남동5kt
온도 16°C
습도 21%
기압 1018 hPa
시정: 16.1km
맑음

METAR: KFMN 221653Z 11005KT 10SM CLR 16/M06 A3007 RMK AO2 SLP144 T01611061

시각: 11:19 (17:19 UTC)

예보

예보는 5 시간 39분 전, 11:40시(UTC)에 발표되었습니다.
예보 대상 시간: 22일 12시부터 23일 12시까지 (UTC)
동남동6kt
시정: 10km
고도 20000ft 상공 구름 조금
22일 1800시부터 (UTC)
남남동9kt
시정: 10km
고도 20000ft 상공 구름 많음
23일 0200시부터 (UTC)
10kt
시정: 10km
고도 5000ft 상공 구름 보통
고도 10000ft 상공 구름 많음
시계 내 소나기
확률 30%
23일 06시부터 23일 12시까지 (UTC)
시정: 9.7km
고도 3000ft 상공 구름 보통
고도 5000ft 상공 구름 많음
약한비, 박무

TAF: KFMN 221140Z 2212/2312 11006KT P6SM FEW200 FM221800 15009KT P6SM BKN200 FM230200 09010KT P6SM VCSH SCT050 BKN100 PROB30 2306/2312 6SM -RA BR SCT030 BKN050

4,000개 이상의 공항 관측 자료 및 예보 (METAR 및 TAF 보고).

지도상에서 검색 가능한 기상관측소가 노란 점과 빨간 점으로 표시되어 있습니다.

기상관측소 명을 보려면 표시 위로 마우스를 이동하세요.

날씨 관측과 예보를 보려면 클릭하세요.

지도 변경 : 확대하려면 엑스 표시가 있는 녹색 버튼, 축소하려면 빼기 표시가 있는 녹색 버튼, 다음 페이지의 지도를 보려면 녹색 화살표를 클릭하세요.


METAR-TAF: